Time;durP1;ratioP1;P1;durP2;ratioP2;P2;SDS_P1;SDS_P2;PMS_P1;PMS_P2;Temp;Humidity;BMP_temperature;BMP_pressure;BME280_temperature;BME280_humidity;BME280_pressure;Samples;Min_cycle;Max_cycle;Signal;HPM_P1;HPM_P2
2021/10/01 00:02:27;;;;;;;;;;;;;;;;;;5068939;28;19913;-92
2021/10/01 00:04:56;;;;;;;;;;;;;;;;;;5064282;28;20759;-88
2021/10/01 00:07:24;;;;;;;;;;;;;;;;;;5068499;28;19925;-83
2021/10/01 00:09:54;;;;;;;;;;;;;;;;;;5076195;28;19932;-86
2021/10/01 00:12:23;;;;;;;;;;;;;;;;;;5078688;28;19924;-83
2021/10/01 00:14:51;;;;;;;;;;;;;;;;;;5064120;28;20109;-84
2021/10/01 00:17:19;;;;;;;;;;;;;;;;;;5055636;28;19931;-82
2021/10/01 00:19:48;;;;;;;;;;;;;;;;;;5079698;28;20383;-85
2021/10/01 00:22:16;;;;;;;;;;;;;;;;;;5063025;28;20420;-85
2021/10/01 00:24:44;;;;;;;;;;;;;;;;;;5078562;28;20369;-87
2021/10/01 00:27:14;;;;;;;;;;;;;;;;;;5080080;28;19957;-89
2021/10/01 00:29:42;;;;;;;;;;;;;;;;;;5061890;28;19924;-89
2021/10/01 00:32:10;;;;;;;;;;;;;;;;;;5059518;28;19923;-86
2021/10/01 00:34:39;;;;;;;;;;;;;;;;;;5070262;28;19924;-84
2021/10/01 00:37:07;;;;;;;;;;;;;;;;;;5063302;28;19924;-87
2021/10/01 00:39:35;;;;;;;;;;;;;;;;;;5068258;28;19931;-85
2021/10/01 00:42:03;;;;;;;;;;;;;;;;;;5063518;28;19928;-84
2021/10/01 00:44:34;;;;;;;;;;;;;;;;;;5061107;28;19924;-81
2021/10/01 00:47:02;;;;;;;;;;;;;;;;;;5073253;28;20389;-82
2021/10/01 00:49:30;;;;;;;;;;;;;;;;;;5062047;28;19924;-83
2021/10/01 00:51:59;;;;;;;;;;;;;;;;;;5066676;28;19937;-88
2021/10/01 00:54:27;;;;;;;;;;;;;;;;;;5081940;28;19924;-85
2021/10/01 00:56:56;;;;;;;;;;;;;;;;;;5063942;28;19939;-85
2021/10/01 00:59:24;;;;;;;;;;;;;;;;;;5062547;28;19924;-83
2021/10/01 01:01:54;;;;;;;;;;;;;;;;;;5064089;28;19935;-83
2021/10/01 01:04:25;;;;;;;;;;;;;;;;;;5058275;28;19929;-82
2021/10/01 01:06:57;;;;;;;;;;;;;;;;;;5079155;28;19924;-84
2021/10/01 01:09:27;;;;;;;;;;;;;;;;;;5078089;28;19924;-84
2021/10/01 01:12:00;;;;;;;;;;;;;;;;;;5066242;28;19931;-88
2021/10/01 01:14:32;;;;;;;;;;;;;;;;;;5058294;28;20385;-83
2021/10/01 01:17:02;;;;;;;;;;;;;;;;;;5056762;28;20333;-83
2021/10/01 01:19:32;;;;;;;;;;;;;;;;;;5060170;28;19924;-88
2021/10/01 01:22:05;;;;;;;;;;;;;;;;;;5075712;28;19931;-85
2021/10/01 01:24:47;;;;;;;;;;;;;;;;;;5060479;28;19928;-85
2021/10/01 01:27:25;;;;;;;;;;;;;;;;;;5080391;28;20394;-84
2021/10/01 01:29:55;;;;;;;;;;;;;;;;;;5070381;28;19928;-85
2021/10/01 01:32:25;;;;;;;;;;;;;;;;;;5087916;28;19937;-82
2021/10/01 01:34:54;;;;;;;;;;;;;;;;;;5055365;28;20305;-82
2021/10/01 01:37:24;;;;;;;;;;;;;;;;;;5079668;28;19924;-83
2021/10/01 01:39:53;;;;;;;;;;;;;;;;;;5057334;28;19928;-87
2021/10/01 01:42:21;;;;;;;;;;;;;;;;;;5058374;28;19924;-83
2021/10/01 01:44:50;;;;;;;;;;;;;;;;;;5091721;28;20333;-82
2021/10/01 01:47:18;;;;;;;;;;;;;;;;;;5065099;28;19947;-82
2021/10/01 01:49:48;;;;;;;;;;;;;;;;;;5063227;28;19928;-86
2021/10/01 01:52:16;;;;;;;;;;;;;;;;;;5062041;28;19924;-84
2021/10/01 01:54:45;;;;;;;;;;;;;;;;;;5053179;28;19924;-88
2021/10/01 01:57:13;;;;;;;;;;;;;;;;;;5064704;28;19931;-88
2021/10/01 01:59:42;;;;;;;;;;;;;;;;;;5076264;28;19928;-85
2021/10/01 02:02:10;;;;;;;;;;;;;;;;;;5065759;28;19924;-83
2021/10/01 02:04:39;;;;;;;;;;;;;;;;;;5072221;28;20397;-84
2021/10/01 02:07:08;;;;;;;;;;;;;;;;;;5075911;28;19924;-83
2021/10/01 02:09:37;;;;;;;;;;;;;;;;;;5076094;28;20030;-85
2021/10/01 02:12:05;;;;;;;;;;;;;;;;;;5063235;28;19924;-82
2021/10/01 02:14:36;;;;;;;;;;;;;;;;;;5059423;28;19924;-82
2021/10/01 02:17:05;;;;;;;;;;;;;;;;;;5076232;28;19938;-84
2021/10/01 02:19:34;;;;;;;;;;;;;;;;;;5064659;28;19928;-86
2021/10/01 02:22:04;;;;;;;;;;;;;;;;;;5064025;28;19908;-92
2021/10/01 02:24:34;;;;;;;;;;;;;;;;;;5085557;28;19923;-92
2021/10/01 02:27:05;;;;;;;;;;;;;;;;;;5083636;28;20309;-86
2021/10/01 02:29:36;;;;;;;;;;;;;;;;;;5070958;28;19932;-82
2021/10/01 02:32:06;;;;;;;;;;;;;;;;;;5081086;28;19955;-84
2021/10/01 02:34:35;;;;;;;;;;;;;;;;;;5075858;28;19928;-82
2021/10/01 02:37:13;;;;;;;;;;;;;;;;;;5067783;28;19928;-83
2021/10/01 02:39:44;;;;;;;;;;;;;;;;;;5065501;28;19924;-87
2021/10/01 02:42:14;;;;;;;;;;;;;;;;;;5074265;28;20317;-85
2021/10/01 02:44:43;;;;;;;;;;;;;;;;;;5076646;28;19932;-88
2021/10/01 02:47:12;;;;;;;;;;;;;;;;;;5062788;28;20298;-83
2021/10/01 02:49:41;;;;;;;;;;;;;;;;;;5079985;28;19931;-87
2021/10/01 02:52:10;;;;;;;;;;;;;;;;;;5061912;28;19928;-85
2021/10/01 02:54:41;;;;;;;;;;;;;;;;;;5062710;28;19924;-85
2021/10/01 02:57:12;;;;;;;;;;;;;;;;;;5060843;28;19924;-86
2021/10/01 02:59:41;;;;;;;;;;;;;;;;;;5058939;28;19936;-85
2021/10/01 03:02:09;;;;;;;;;;;;;;;;;;5063751;28;19924;-87
2021/10/01 03:04:38;;;;;;;;;;;;;;;;;;5082175;28;19932;-84
2021/10/01 03:07:06;;;;;;;;;;;;;;;;;;5064640;28;19924;-86
2021/10/01 03:09:36;;;;;;;;;;;;;;;;;;5075335;28;19932;-88
2021/10/01 03:12:04;;;;;;;;;;;;;;;;;;5078199;28;19924;-86
2021/10/01 03:14:34;;;;;;;;;;;;;;;;;;5062082;28;19931;-84
2021/10/01 03:17:03;;;;;;;;;;;;;;;;;;5074283;28;20394;-87
2021/10/01 03:19:31;;;;;;;;;;;;;;;;;;5077450;28;20381;-87
2021/10/01 03:22:00;;;;;;;;;;;;;;;;;;5053826;28;19928;-89
2021/10/01 03:24:28;;;;;;;;;;;;;;;;;;5064198;28;19924;-87
2021/10/01 03:26:57;;;;;;;;;;;;;;;;;;5057135;28;20412;-85
2021/10/01 03:29:27;;;;;;;;;;;;;;;;;;5068438;28;19924;-83
2021/10/01 03:31:57;;;;;;;;;;;;;;;;;;5102226;28;19938;-85
2021/10/01 03:34:26;;;;;;;;;;;;;;;;;;5098531;28;19925;-83
2021/10/01 03:37:03;;;;;;;;;;;;;;;;;;5079345;28;19925;-84
2021/10/01 03:39:32;;;;;;;;;;;;;;;;;;5061074;28;19931;-86
2021/10/01 03:42:01;;;;;;;;;;;;;;;;;;5077151;28;19924;-87
2021/10/01 03:44:29;;;;;;;;;;;;;;;;;;5081605;28;19924;-87
2021/10/01 03:46:59;;;;;;;;;;;;;;;;;;5101035;28;19929;-85
2021/10/01 03:49:27;;;;;;;;;;;;;;;;;;5101252;28;19924;-88
2021/10/01 03:51:58;;;;;;;;;;;;;;;;;;5084174;28;19935;-83
2021/10/01 03:54:27;;;;;;;;;;;;;;;;;;5084048;28;19938;-83
2021/10/01 03:56:55;;;;;;;;;;;;;;;;;;5080661;28;19925;-89
2021/10/01 03:59:23;;;;;;;;;;;;;;;;;;5082226;28;19924;-86
2021/10/01 04:01:51;;;;;;;;;;;;;;;;;;5061243;28;19924;-88
2021/10/01 04:04:21;;;;;;;;;;;;;;;;;;5068176;28;19931;-87
2021/10/01 04:06:50;;;;;;;;;;;;;;;;;;5069690;28;19931;-85
2021/10/01 04:09:19;;;;;;;;;;;;;;;;;;5082486;28;20278;-88
2021/10/01 04:11:48;;;;;;;;;;;;;;;;;;5083097;28;19951;-85
2021/10/01 04:14:16;;;;;;;;;;;;;;;;;;5067278;28;21270;-85
2021/10/01 04:16:44;;;;;;;;;;;;;;;;;;5068365;28;20298;-83
2021/10/01 04:19:13;;;;;;;;;;;;;;;;;;5076568;28;19924;-83
2021/10/01 04:21:57;;;;;;;;;;;;;;;;;;5067526;28;19924;-85
2021/10/01 04:24:26;;;;;;;;;;;;;;;;;;5066221;28;19943;-82
2021/10/01 04:26:58;;;;;;;;;;;;;;;;;;5099226;28;19924;-87
2021/10/01 04:29:26;;;;;;;;;;;;;;;;;;5064836;28;19928;-87
2021/10/01 04:31:55;;;;;;;;;;;;;;;;;;5060561;28;19924;-85
2021/10/01 04:34:24;;;;;;;;;;;;;;;;;;5061574;28;19931;-86
2021/10/01 04:36:52;;;;;;;;;;;;;;;;;;5074576;28;20017;-85
2021/10/01 04:39:22;;;;;;;;;;;;;;;;;;5066285;28;19924;-89
2021/10/01 04:41:50;;;;;;;;;;;;;;;;;;5056823;28;19924;-83
2021/10/01 04:44:19;;;;;;;;;;;;;;;;;;5073842;28;19912;-91
2021/10/01 04:46:50;;;;;;;;;;;;;;;;;;5092587;28;19913;-91
2021/10/01 04:49:19;;;;;;;;;;;;;;;;;;5059162;28;19935;-87
2021/10/01 04:51:47;;;;;;;;;;;;;;;;;;5069296;28;19924;-85
2021/10/01 04:54:16;;;;;;;;;;;;;;;;;;5075487;28;19928;-83
2021/10/01 04:56:47;;;;;;;;;;;;;;;;;;5061097;28;19931;-87
2021/10/01 04:59:16;;;;;;;;;;;;;;;;;;5061586;28;19925;-83
2021/10/01 05:02:03;;;;;;;;;;;;;;;;;;5077047;28;19924;-89
2021/10/01 05:04:57;;;;;;;;;;;;;;;;;;5081285;28;19951;-83
2021/10/01 05:07:44;;;;;;;;;;;;;;;;;;5085651;28;19924;-84
2021/10/01 05:10:32;;;;;;;;;;;;;;;;;;5089543;28;19931;-88
2021/10/01 05:13:21;;;;;;;;;;;;;;;;;;5083950;28;19931;-88
2021/10/01 05:16:09;;;;;;;;;;;;;;;;;;5074691;28;19933;-83
2021/10/01 05:18:56;;;;;;;;;;;;;;;;;;5078624;28;20329;-89
2021/10/01 05:21:53;;;;;;;;;;;;;;;;;;5070494;28;20297;-85
2021/10/01 05:24:21;;;;;;;;;;;;;;;;;;5058743;28;19924;-83
2021/10/01 05:26:49;;;;;;;;;;;;;;;;;;5091789;28;19924;-83
2021/10/01 05:29:19;;;;;;;;;;;;;;;;;;5075554;28;19936;-83
2021/10/01 05:31:48;;;;;;;;;;;;;;;;;;5059754;28;19925;-83
2021/10/01 05:34:17;;;;;;;;;;;;;;;;;;5085666;28;20397;-89
2021/10/01 05:36:45;;;;;;;;;;;;;;;;;;5077353;28;20373;-86
2021/10/01 05:39:13;;;;;;;;;;;;;;;;;;5092414;28;19925;-82
2021/10/01 05:41:42;;;;;;;;;;;;;;;;;;5075324;28;20389;-83
2021/10/01 05:44:11;;;;;;;;;;;;;;;;;;5058842;28;20193;-88
2021/10/01 05:47:47;;;;;;;;;;;;;;;;;;5019200;28;19937;-86
2021/10/01 05:50:53;;;;;;;;;;;;;;;;;;4976950;28;19936;-86
2021/10/01 05:54:01;;;;;;;;;;;;;;;;;;4993979;28;20352;-86
2021/10/01 05:56:48;;;;;;;;;;;;;;;;;;4996442;28;19929;-83
2021/10/01 05:59:29;;;;;;;;;;;;;;;;;;4999588;28;20212;-82
2021/10/01 06:01:57;;;;;;;;;;;;;;;;;;4981062;28;20249;-86
2021/10/01 06:04:27;;;;;;;;;;;;;;;;;;5013990;28;19936;-88
2021/10/01 06:06:55;;;;;;;;;;;;;;;;;;5061205;28;20302;-88
2021/10/01 06:09:24;;;;;;;;;;;;;;;;;;5059738;28;19924;-86
2021/10/01 06:11:53;;;;;;;;;;;;;;;;;;5075047;28;19924;-82
2021/10/01 06:14:22;;;;;;;;;;;;;;;;;;5074292;28;19931;-82
2021/10/01 06:16:52;;;;;;;;;;;;;;;;;;5072725;28;19928;-83
2021/10/01 06:19:20;;;;;;;;;;;;;;;;;;5076108;28;19927;-85
2021/10/01 06:21:51;;;;;;;;;;;;;;;;;;5075576;28;19939;-86
2021/10/01 06:24:20;;;;;;;;;;;;;;;;;;5060076;28;19935;-89
2021/10/01 06:26:48;;;;;;;;;;;;;;;;;;5073623;28;20363;-89
2021/10/01 06:29:16;;;;;;;;;;;;;;;;;;5054171;28;19924;-87
2021/10/01 06:31:45;;;;;;;;;;;;;;;;;;5075441;28;20381;-84
2021/10/01 06:34:13;;;;;;;;;;;;;;;;;;5068688;28;19931;-84
2021/10/01 06:36:42;;;;;;;;;;;;;;;;;;5057034;28;20385;-83
2021/10/01 06:39:11;;;;;;;;;;;;;;;;;;5075821;28;19924;-84
2021/10/01 06:41:40;;;;;;;;;;;;;;;;;;5069471;28;20317;-86
2021/10/01 06:44:10;;;;;;;;;;;;;;;;;;5060596;28;19931;-87
2021/10/01 06:47:06;;;;;;;;;;;;;;;;;;5065485;28;19943;-90
2021/10/01 06:49:56;;;;;;;;;;;;;;;;;;5037734;28;19924;-91
2021/10/01 06:53:03;;;;;;;;;;;;;;;;;;5046906;28;20201;-90
2021/10/01 07:24:14;;;;;;;;;;;;;;;;;;5057007;28;19951;-91
2021/10/01 08:19:22;;;;;;;;;;;;;;;;;;5063964;28;19947;-86
2021/10/01 08:21:51;;;;;;;;;;;;;;;;;;5069287;28;19924;-88
2021/10/01 08:24:20;;;;;;;;;;;;;;;;;;5074971;28;20198;-89
2021/10/01 08:26:49;;;;;;;;;;;;;;;;;;5046879;28;19928;-90
2021/10/01 08:29:17;;;;;;;;;;;;;;;;;;5068726;28;19931;-87
2021/10/01 08:31:49;;;;;;;;;;;;;;;;;;5066776;28;19928;-90
2021/10/01 08:34:20;;;;;;;;;;;;;;;;;;5073362;28;20214;-88
2021/10/01 08:36:51;;;;;;;;;;;;;;;;;;5057228;28;19932;-84
2021/10/01 08:39:21;;;;;;;;;;;;;;;;;;5076748;28;20409;-87
2021/10/01 08:41:49;;;;;;;;;;;;;;;;;;5054491;28;19928;-88
2021/10/01 08:44:18;;;;;;;;;;;;;;;;;;5065111;28;19935;-88
2021/10/01 08:46:47;;;;;;;;;;;;;;;;;;5065831;28;19941;-88
2021/10/01 08:49:16;;;;;;;;;;;;;;;;;;5076084;28;20326;-86
2021/10/01 08:51:45;;;;;;;;;;;;;;;;;;5049223;28;19931;-90
2021/10/01 08:54:14;;;;;;;;;;;;;;;;;;5067421;28;20291;-84
2021/10/01 08:56:42;;;;;;;;;;;;;;;;;;5055402;28;20337;-87
2021/10/01 08:59:10;;;;;;;;;;;;;;;;;;5059579;28;19928;-87
2021/10/01 09:01:39;;;;;;;;;;;;;;;;;;5053399;28;19929;-90
2021/10/01 09:04:07;;;;;;;;;;;;;;;;;;5053821;28;20314;-90
2021/10/01 09:06:36;;;;;;;;;;;;;;;;;;5073383;28;19932;-87
2021/10/01 09:09:06;;;;;;;;;;;;;;;;;;5074252;28;19939;-87
2021/10/01 09:11:35;;;;;;;;;;;;;;;;;;5066354;28;19924;-88
2021/10/01 09:14:04;;;;;;;;;;;;;;;;;;5091814;28;19936;-89
2021/10/01 09:16:32;;;;;;;;;;;;;;;;;;5061136;28;20377;-87
2021/10/01 09:19:01;;;;;;;;;;;;;;;;;;5070992;28;19928;-88
2021/10/01 09:21:30;;;;;;;;;;;;;;;;;;5074883;28;20325;-88
2021/10/01 09:24:04;;;;;;;;;;;;;;;;;;5071762;28;19932;-89
2021/10/01 09:26:35;;;;;;;;;;;;;;;;;;5072458;28;19928;-89
2021/10/01 09:29:05;;;;;;;;;;;;;;;;;;5058209;28;20275;-88
2021/10/01 09:31:38;;;;;;;;;;;;;;;;;;5089038;28;19915;-91
2021/10/01 09:37:06;;;;;;;;;;;;;;;;;;5050900;28;19938;-87
2021/10/01 09:39:37;;;;;;;;;;;;;;;;;;5054278;28;19931;-89
2021/10/01 09:42:15;;;;;;;;;;;;;;;;;;5067456;28;19932;-88
2021/10/01 09:44:45;;;;;;;;;;;;;;;;;;5058978;28;19925;-87
2021/10/01 09:47:14;;;;;;;;;;;;;;;;;;5042133;28;20398;-85
2021/10/01 09:49:48;;;;;;;;;;;;;;;;;;5057100;28;19932;-89
2021/10/01 09:52:19;;;;;;;;;;;;;;;;;;5051360;28;20421;-89
2021/10/01 09:54:50;;;;;;;;;;;;;;;;;;5054736;28;19924;-89
2021/10/01 09:57:22;;;;;;;;;;;;;;;;;;5051572;28;19924;-88
2021/10/01 09:59:51;;;;;;;;;;;;;;;;;;5059197;28;19955;-87
2021/10/01 10:02:20;;;;;;;;;;;;;;;;;;5062834;28;19924;-87
2021/10/01 10:04:54;;;;;;;;;;;;;;;;;;5059547;28;19931;-82
2021/10/01 10:07:23;;;;;;;;;;;;;;;;;;5095663;28;20233;-81
2021/10/01 10:09:52;;;;;;;;;;;;;;;;;;5050344;28;19924;-90
2021/10/01 10:12:23;;;;;;;;;;;;;;;;;;5050693;28;19924;-86
2021/10/01 10:14:53;;;;;;;;;;;;;;;;;;5091476;28;19931;-85
2021/10/01 10:17:22;;;;;;;;;;;;;;;;;;5060390;28;19931;-85
2021/10/01 10:19:51;;;;;;;;;;;;;;;;;;5048162;28;20373;-83
2021/10/01 10:22:20;;;;;;;;;;;;;;;;;;5048272;28;19928;-82
2021/10/01 10:24:49;;;;;;;;;;;;;;;;;;5063762;28;19928;-84
2021/10/01 10:27:17;;;;;;;;;;;;;;;;;;5063037;28;19935;-85
2021/10/01 10:29:47;;;;;;;;;;;;;;;;;;5066045;28;19928;-84
2021/10/01 10:32:20;;;;;;;;;;;;;;;;;;5068801;28;19935;-86
2021/10/01 10:34:49;;;;;;;;;;;;;;;;;;5067880;28;19928;-84
2021/10/01 10:37:17;;;;;;;;;;;;;;;;;;5064804;28;19924;-88
2021/10/01 10:39:50;;;;;;;;;;;;;;;;;;5045824;28;19938;-87
2021/10/01 10:42:20;;;;;;;;;;;;;;;;;;5067531;28;19932;-82
2021/10/01 10:44:51;;;;;;;;;;;;;;;;;;5065097;28;19924;-82
2021/10/01 10:47:38;;;;;;;;;;;;;;;;;;5066323;28;20412;-85
2021/10/01 10:50:27;;;;;;;;;;;;;;;;;;5051687;28;19931;-83
2021/10/01 10:53:24;;;;;;;;;;;;;;;;;;5065326;28;19924;-82
2021/10/01 10:55:54;;;;;;;;;;;;;;;;;;5019049;28;19935;-84
2021/10/01 10:58:41;;;;;;;;;;;;;;;;;;5083522;28;19935;-84
2021/10/01 11:01:26;;;;;;;;;;;;;;;;;;5067152;28;19912;-84
2021/10/01 11:04:13;;;;;;;;;;;;;;;;;;5080219;28;20280;-84
2021/10/01 11:06:43;;;;;;;;;;;;;;;;;;5103684;28;19924;-86
2021/10/01 11:09:25;;;;;;;;;;;;;;;;;;5076068;28;19928;-85
2021/10/01 11:11:57;;;;;;;;;;;;;;;;;;5063119;28;19924;-84
2021/10/01 11:14:28;;;;;;;;;;;;;;;;;;5046862;28;19963;-85
2021/10/01 11:17:16;;;;;;;;;;;;;;;;;;5050346;28;19931;-86
2021/10/01 11:19:45;;;;;;;;;;;;;;;;;;5067679;28;20838;-84
2021/10/01 11:22:42;;;;;;;;;;;;;;;;;;5072768;28;19923;-85
2021/10/01 11:25:16;;;;;;;;;;;;;;;;;;5031845;28;19935;-86
2021/10/01 11:27:51;;;;;;;;;;;;;;;;;;5061427;28;20120;-84
2021/10/01 11:30:19;;;;;;;;;;;;;;;;;;5063173;28;19931;-84
2021/10/01 11:32:48;;;;;;;;;;;;;;;;;;5066323;28;19931;-83
2021/10/01 11:35:17;;;;;;;;;;;;;;;;;;5046166;28;19924;-84
2021/10/01 11:37:48;;;;;;;;;;;;;;;;;;5050423;28;19935;-84
2021/10/01 11:40:20;;;;;;;;;;;;;;;;;;5060757;28;19924;-84
2021/10/01 11:42:49;;;;;;;;;;;;;;;;;;5043024;28;20349;-84
2021/10/01 11:45:19;;;;;;;;;;;;;;;;;;5052369;28;19931;-84
2021/10/01 11:47:54;;;;;;;;;;;;;;;;;;5094600;28;19924;-85
2021/10/01 11:50:29;;;;;;;;;;;;;;;;;;5047798;28;19935;-85
2021/10/01 11:52:58;;;;;;;;;;;;;;;;;;5073452;28;19928;-85
2021/10/01 11:55:28;;;;;;;;;;;;;;;;;;5105907;28;19923;-86
2021/10/01 11:57:57;;;;;;;;;;;;;;;;;;5075649;28;19930;-84
2021/10/01 12:00:25;;;;;;;;;;;;;;;;;;5041245;28;19928;-84
2021/10/01 12:02:54;;;;;;;;;;;;;;;;;;5073088;28;19928;-86
2021/10/01 12:05:24;;;;;;;;;;;;;;;;;;5067101;28;19935;-84
2021/10/01 12:07:53;;;;;;;;;;;;;;;;;;5048057;28;19925;-85
2021/10/01 12:10:22;;;;;;;;;;;;;;;;;;5066727;28;19924;-85
2021/10/01 12:13:14;;;;;;;;;;;;;;;;;;5086486;28;19932;-84
2021/10/01 12:15:46;;;;;;;;;;;;;;;;;;5036121;28;19935;-85
2021/10/01 12:18:28;;;;;;;;;;;;;;;;;;5058050;28;19928;-85
2021/10/01 12:20:57;;;;;;;;;;;;;;;;;;5066032;28;20386;-84
2021/10/01 12:23:29;;;;;;;;;;;;;;;;;;5053526;28;19924;-84
2021/10/01 12:25:57;;;;;;;;;;;;;;;;;;5078107;28;19924;-84
2021/10/01 12:28:25;;;;;;;;;;;;;;;;;;5088032;28;19932;-84
2021/10/01 12:31:01;;;;;;;;;;;;;;;;;;5043562;28;19928;-86
2021/10/01 12:33:29;;;;;;;;;;;;;;;;;;5064203;28;19928;-87
2021/10/01 12:35:58;;;;;;;;;;;;;;;;;;5064714;28;19932;-87
2021/10/01 12:38:27;;;;;;;;;;;;;;;;;;5049101;28;19932;-84
2021/10/01 12:41:08;;;;;;;;;;;;;;;;;;5057551;28;20409;-85
2021/10/01 12:43:43;;;;;;;;;;;;;;;;;;5067543;28;19928;-85
2021/10/01 12:46:13;;;;;;;;;;;;;;;;;;5064230;28;19935;-84
2021/10/01 12:48:42;;;;;;;;;;;;;;;;;;5065070;28;20310;-84
2021/10/01 12:51:23;;;;;;;;;;;;;;;;;;5055220;28;19943;-83
2021/10/01 12:53:51;;;;;;;;;;;;;;;;;;5069680;28;20310;-84
2021/10/01 12:56:19;;;;;;;;;;;;;;;;;;5060107;28;19931;-85
2021/10/01 12:58:48;;;;;;;;;;;;;;;;;;5067367;28;19924;-86
2021/10/01 13:01:18;;;;;;;;;;;;;;;;;;5055478;28;19939;-84
2021/10/01 13:03:47;;;;;;;;;;;;;;;;;;5074371;28;19986;-85
2021/10/01 13:06:29;;;;;;;;;;;;;;;;;;5074829;28;19928;-84
2021/10/01 13:08:57;;;;;;;;;;;;;;;;;;5048793;28;19924;-84
2021/10/01 13:11:26;;;;;;;;;;;;;;;;;;5054658;28;19932;-84
2021/10/01 13:13:54;;;;;;;;;;;;;;;;;;5058375;28;20275;-82
2021/10/01 13:16:27;;;;;;;;;;;;;;;;;;5076731;28;20404;-85
2021/10/01 13:19:11;;;;;;;;;;;;;;;;;;5058224;28;19928;-84
2021/10/01 13:21:45;;;;;;;;;;;;;;;;;;5057560;28;19931;-85
2021/10/01 13:24:13;;;;;;;;;;;;;;;;;;5048713;28;19928;-85
2021/10/01 13:26:41;;;;;;;;;;;;;;;;;;5052149;28;20318;-84
2021/10/01 13:29:11;;;;;;;;;;;;;;;;;;5060228;28;19954;-84
2021/10/01 13:31:42;;;;;;;;;;;;;;;;;;5073216;28;19928;-84
2021/10/01 13:34:11;;;;;;;;;;;;;;;;;;5066206;28;19931;-85
2021/10/01 13:36:39;;;;;;;;;;;;;;;;;;5072642;28;19924;-84
2021/10/01 13:39:07;;;;;;;;;;;;;;;;;;5072802;28;20319;-84
2021/10/01 13:41:38;;;;;;;;;;;;;;;;;;5054104;28;20310;-84
2021/10/01 13:44:06;;;;;;;;;;;;;;;;;;5078245;28;19936;-84
2021/10/01 13:46:35;;;;;;;;;;;;;;;;;;5054463;28;19931;-85
2021/10/01 13:49:10;;;;;;;;;;;;;;;;;;5054495;28;20313;-83
2021/10/01 13:51:40;;;;;;;;;;;;;;;;;;5054172;28;20411;-84
2021/10/01 13:54:26;;;;;;;;;;;;;;;;;;5091131;28;20225;-84
2021/10/01 13:56:56;;;;;;;;;;;;;;;;;;5091639;28;19927;-85
2021/10/01 13:59:25;;;;;;;;;;;;;;;;;;5095264;28;20160;-87
2021/10/01 14:01:54;;;;;;;;;;;;;;;;;;5059035;28;19931;-83
2021/10/01 14:04:26;;;;;;;;;;;;;;;;;;5053156;28;19931;-83
2021/10/01 14:06:54;;;;;;;;;;;;;;;;;;5071926;28;19932;-84
2021/10/01 14:09:22;;;;;;;;;;;;;;;;;;5073479;28;19928;-83
2021/10/01 14:12:40;;;;;;;;;;;;;;;;;;5087373;28;19924;-84
2021/10/01 14:15:15;;;;;;;;;;;;;;;;;;5065295;28;20496;-83
2021/10/01 14:17:44;;;;;;;;;;;;;;;;;;5058446;28;19908;-84
2021/10/01 14:20:26;;;;;;;;;;;;;;;;;;5092511;28;19934;-85
2021/10/01 14:23:24;;;;;;;;;;;;;;;;;;5071578;28;20430;-87
2021/10/01 14:25:53;;;;;;;;;;;;;;;;;;5069880;28;19924;-83
2021/10/01 14:28:22;;;;;;;;;;;;;;;;;;5085826;28;19951;-86
2021/10/01 14:31:13;;;;;;;;;;;;;;;;;;5050443;28;19925;-83
2021/10/01 14:34:45;;;;;;;;;;;;;;;;;;5025203;27;20011;-84
2021/10/01 14:37:13;;;;;;;;;;;;;;;;;;5022588;28;20384;-83
2021/10/01 14:39:41;;;;;;;;;;;;;;;;;;5025563;28;19940;-82
2021/10/01 14:42:10;;;;;;;;;;;;;;;;;;5026725;28;19933;-82
2021/10/01 14:44:38;;;;;;;;;;;;;;;;;;5032454;28;19936;-82
2021/10/01 14:47:07;;;;;;;;;;;;;;;;;;5026074;28;20265;-82
2021/10/01 14:49:35;;;;;;;;;;;;;;;;;;5045896;28;19929;-82
2021/10/01 14:52:05;;;;;;;;;;;;;;;;;;5025035;28;19925;-82
2021/10/01 14:54:33;;;;;;;;;;;;;;;;;;5007335;28;19932;-84
2021/10/01 14:57:02;;;;;;;;;;;;;;;;;;5035931;28;19934;-82
2021/10/01 14:59:30;;;;;;;;;;;;;;;;;;5029010;28;19933;-83
2021/10/01 15:01:58;;;;;;;;;;;;;;;;;;5017127;28;19932;-83
2021/10/01 15:04:27;;;;;;;;;;;;;;;;;;5022812;28;19941;-82
2021/10/01 15:06:55;;;;;;;;;;;;;;;;;;5027150;28;19929;-83
2021/10/01 15:09:24;;;;;;;;;;;;;;;;;;5043363;28;19925;-83
2021/10/01 15:11:54;;;;;;;;;;;;;;;;;;5029195;28;19926;-83
2021/10/01 15:14:22;;;;;;;;;;;;;;;;;;5012917;28;20392;-82
2021/10/01 15:16:51;;;;;;;;;;;;;;;;;;5032588;28;19925;-84
2021/10/01 15:19:19;;;;;;;;;;;;;;;;;;5006964;28;19925;-82
2021/10/01 15:21:47;;;;;;;;;;;;;;;;;;5021852;28;19932;-83
2021/10/01 15:24:16;;;;;;;;;;;;;;;;;;5042480;28;19936;-83
2021/10/01 15:26:46;;;;;;;;;;;;;;;;;;5034899;28;19932;-82
2021/10/01 15:29:15;;;;;;;;;;;;;;;;;;5022768;28;20387;-82
2021/10/01 15:31:43;;;;;;;;;;;;;;;;;;5021063;28;20293;-82
2021/10/01 15:34:11;;;;;;;;;;;;;;;;;;5038692;28;19929;-81
2021/10/01 15:36:45;;;;;;;;;;;;;;;;;;5023183;28;19933;-82
2021/10/01 15:39:14;;;;;;;;;;;;;;;;;;5036290;28;19933;-82
2021/10/01 15:41:42;;;;;;;;;;;;;;;;;;5042454;28;19929;-82
2021/10/01 15:44:12;;;;;;;;;;;;;;;;;;5044425;28;20666;-82
2021/10/01 15:46:40;;;;;;;;;;;;;;;;;;4993036;28;20000;-82
2021/10/01 15:49:08;;;;;;;;;;;;;;;;;;5007076;28;20323;-83
2021/10/01 15:51:36;;;;;;;;;;;;;;;;;;5008204;28;20328;-83
2021/10/01 15:54:05;;;;;;;;;;;;;;;;;;5030545;28;19948;-82
2021/10/01 15:56:36;;;;;;;;;;;;;;;;;;4990661;28;20300;-83
2021/10/01 15:59:15;;;;;;;;;;;;;;;;;;5015713;28;20367;-82
2021/10/01 16:01:44;;;;;;;;;;;;;;;;;;5017994;28;20384;-82
2021/10/01 16:04:12;;;;;;;;;;;;;;;;;;5007514;28;19948;-81
2021/10/01 16:06:41;;;;;;;;;;;;;;;;;;5015918;28;19925;-81
2021/10/01 16:09:09;;;;;;;;;;;;;;;;;;5009978;28;19926;-81
2021/10/01 16:11:37;;;;;;;;;;;;;;;;;;5032272;28;20292;-83
2021/10/01 16:14:54;;;;;;;;;;;;;;;;;;5011250;28;19926;-84
2021/10/01 16:18:03;;;;;;;;;;;;;;;;;;5031092;28;19932;-84
2021/10/01 16:20:33;;;;;;;;;;;;;;;;;;5015784;28;19929;-81
2021/10/01 16:23:02;;;;;;;;;;;;;;;;;;5024607;28;19925;-84
2021/10/01 16:25:31;;;;;;;;;;;;;;;;;;5014877;28;19930;-82
2021/10/01 16:28:01;;;;;;;;;;;;;;;;;;5012214;28;19926;-81
2021/10/01 16:30:30;;;;;;;;;;;;;;;;;;5000714;28;19925;-82
2021/10/01 16:32:59;;;;;;;;;;;;;;;;;;5028745;28;19926;-82
2021/10/01 16:35:29;;;;;;;;;;;;;;;;;;5018052;28;19932;-84
2021/10/01 16:37:57;;;;;;;;;;;;;;;;;;4988149;28;19929;-86
2021/10/01 16:40:26;;;;;;;;;;;;;;;;;;5006837;28;19940;-84
2021/10/01 16:42:54;;;;;;;;;;;;;;;;;;5023199;28;19909;-86
2021/10/01 16:45:23;;;;;;;;;;;;;;;;;;5016966;28;19940;-86
2021/10/01 16:47:51;;;;;;;;;;;;;;;;;;4996928;28;19933;-84
2021/10/01 16:50:19;;;;;;;;;;;;;;;;;;5021973;28;19936;-86
2021/10/01 16:52:49;;;;;;;;;;;;;;;;;;5030437;28;19928;-86
2021/10/01 16:55:18;;;;;;;;;;;;;;;;;;5011931;28;19925;-87
2021/10/01 16:57:47;;;;;;;;;;;;;;;;;;4995378;28;19933;-85
2021/10/01 17:00:15;;;;;;;;;;;;;;;;;;4999168;28;19926;-85
2021/10/01 17:02:46;;;;;;;;;;;;;;;;;;5022147;28;19933;-83
2021/10/01 17:05:15;;;;;;;;;;;;;;;;;;5012945;28;19930;-85
2021/10/01 17:07:43;;;;;;;;;;;;;;;;;;5029715;28;19925;-82
2021/10/01 17:10:12;;;;;;;;;;;;;;;;;;4997283;28;19925;-83
2021/10/01 17:12:41;;;;;;;;;;;;;;;;;;5013308;28;19937;-83
2021/10/01 17:15:10;;;;;;;;;;;;;;;;;;5008021;28;19925;-82
2021/10/01 17:17:39;;;;;;;;;;;;;;;;;;5009815;28;19926;-85
2021/10/01 17:20:08;;;;;;;;;;;;;;;;;;5008771;28;19940;-83
2021/10/01 17:22:36;;;;;;;;;;;;;;;;;;4998371;28;20399;-83
2021/10/01 17:25:05;;;;;;;;;;;;;;;;;;5010415;28;20308;-85
2021/10/01 17:27:35;;;;;;;;;;;;;;;;;;5021329;28;19929;-84
2021/10/01 17:30:03;;;;;;;;;;;;;;;;;;5026731;28;19940;-86
2021/10/01 17:32:32;;;;;;;;;;;;;;;;;;4991327;28;19936;-82
2021/10/01 17:35:00;;;;;;;;;;;;;;;;;;5012744;28;20101;-84
2021/10/01 17:37:28;;;;;;;;;;;;;;;;;;5017538;28;19925;-84
2021/10/01 17:39:56;;;;;;;;;;;;;;;;;;5022682;28;19928;-87
2021/10/01 17:42:24;;;;;;;;;;;;;;;;;;4996623;28;19929;-85
2021/10/01 17:44:54;;;;;;;;;;;;;;;;;;5013494;28;20380;-84
2021/10/01 17:47:22;;;;;;;;;;;;;;;;;;5034182;28;19925;-87
2021/10/01 17:49:50;;;;;;;;;;;;;;;;;;5018550;28;21119;-87
2021/10/01 17:52:19;;;;;;;;;;;;;;;;;;4990808;28;20213;-84
2021/10/01 17:54:47;;;;;;;;;;;;;;;;;;5018624;28;20390;-82
2021/10/01 17:57:15;;;;;;;;;;;;;;;;;;5008578;28;19933;-83
2021/10/01 17:59:44;;;;;;;;;;;;;;;;;;4991228;28;20383;-85
2021/10/01 18:02:13;;;;;;;;;;;;;;;;;;4989791;28;19932;-83
2021/10/01 18:04:42;;;;;;;;;;;;;;;;;;5003354;28;19932;-81
2021/10/01 18:07:10;;;;;;;;;;;;;;;;;;5005112;28;20036;-82
2021/10/01 18:09:38;;;;;;;;;;;;;;;;;;5003031;28;19925;-85
2021/10/01 18:12:07;;;;;;;;;;;;;;;;;;5013381;28;20279;-83
2021/10/01 18:14:35;;;;;;;;;;;;;;;;;;5004231;28;19929;-82
2021/10/01 18:17:04;;;;;;;;;;;;;;;;;;4993462;28;20112;-82
2021/10/01 18:19:34;;;;;;;;;;;;;;;;;;5035811;28;19949;-82
2021/10/01 18:22:02;;;;;;;;;;;;;;;;;;5004617;28;19933;-87
2021/10/01 18:24:30;;;;;;;;;;;;;;;;;;5007682;28;19925;-86
2021/10/01 18:26:58;;;;;;;;;;;;;;;;;;5009320;28;19940;-86
2021/10/01 18:29:27;;;;;;;;;;;;;;;;;;5012297;28;19933;-86
2021/10/01 18:31:55;;;;;;;;;;;;;;;;;;5003537;28;19928;-85
2021/10/01 18:34:24;;;;;;;;;;;;;;;;;;5018489;28;20044;-88
2021/10/01 18:36:53;;;;;;;;;;;;;;;;;;5045323;28;19936;-88
2021/10/01 18:39:22;;;;;;;;;;;;;;;;;;4995037;28;19932;-86
2021/10/01 18:41:50;;;;;;;;;;;;;;;;;;5010165;28;19925;-83